Time;durP1;ratioP1;P1;durP2;ratioP2;P2;SDS_P1;SDS_P2;PMS_P1;PMS_P2;Temp;Humidity;BMP_temperature;BMP_pressure;BME280_temperature;BME280_humidity;BME280_pressure;Samples;Min_cycle;Max_cycle;Signal;HPM_P1;HPM_P2
2022/12/29 14:21:30;;;;;;;;;;;;;;;11.15;66.44;97573.22;5372371;23;20345;-66
2022/12/29 14:24:00;;;;;;;;;;;;;;;11.08;67.36;97561.56;4840965;29;19925;-64
2022/12/29 14:26:31;;;;;;;;;;;;;;;11.00;67.29;97568.38;4840953;29;19920;-64
2022/12/29 14:28:57;;;;;;;;;;;;;;;10.93;67.81;97561.00;4823877;29;19921;-65
2022/12/29 14:31:28;;;;;;;;;;;;;;;10.85;68.71;97563.41;4832667;29;20441;-64
2022/12/29 14:34:05;;;;;;;;;;;;;;;10.77;68.87;97560.56;4840010;29;19921;-64
2022/12/29 14:36:34;;;;;;;;;;;;;;;10.73;68.90;97563.53;4837760;29;20357;-65
2022/12/29 14:38:59;;;;;;;;;;;;;;;10.65;69.38;97566.78;4822952;29;19920;-65
2022/12/29 14:41:32;;;;;;;;;;;;;;;10.66;69.60;97564.00;4839352;29;19979;-65
2022/12/29 14:43:58;;;;;;;;;;;;;;;10.63;69.90;97566.91;4816878;29;19951;-65
2022/12/29 14:46:24;;;;;;;;;;;;;;;10.60;69.78;97559.28;4823204;29;20520;-65
2022/12/29 14:48:52;;;;;;;;;;;;;;;10.55;70.26;97563.22;4822713;29;19952;-65
2022/12/29 14:51:18;;;;;;;;;;;;;;;10.51;70.23;97565.25;4823848;29;19938;-66
2022/12/29 14:53:44;;;;;;;;;;;;;;;10.48;70.11;97559.41;4825237;29;19925;-66
2022/12/29 14:56:10;;;;;;;;;;;;;;;10.45;70.34;97563.09;4822054;29;19927;-67
2022/12/29 14:58:38;;;;;;;;;;;;;;;10.44;70.32;97564.06;4819628;29;19920;-66
2022/12/29 15:01:03;;;;;;;;;;;;;;;10.47;70.03;97563.81;4839410;29;19917;-66
2022/12/29 15:03:32;;;;;;;;;;;;;;;10.44;70.73;97561.44;4824837;29;19920;-65
2022/12/29 15:06:03;;;;;;;;;;;;;;;10.40;70.70;97568.69;4807066;29;19923;-65
2022/12/29 15:08:30;;;;;;;;;;;;;;;10.36;71.20;97575.13;4835782;29;19959;-65
2022/12/29 15:10:56;;;;;;;;;;;;;;;10.34;70.69;97577.03;4824666;29;19968;-65
2022/12/29 15:13:22;;;;;;;;;;;;;;;10.33;70.81;97571.94;4824728;29;19921;-67
2022/12/29 15:15:47;;;;;;;;;;;;;;;10.27;71.22;97583.72;4823898;29;20025;-66
2022/12/29 15:18:23;;;;;;;;;;;;;;;10.25;71.09;97587.34;4839115;29;20041;-65
2022/12/29 15:20:50;;;;;;;;;;;;;;;10.21;71.53;97579.72;4839834;29;20015;-65
2022/12/29 15:23:15;;;;;;;;;;;;;;;10.17;71.25;97580.91;4821753;29;19925;-65
2022/12/29 15:25:48;;;;;;;;;;;;;;;10.19;71.87;97586.06;4824895;29;19923;-65
2022/12/29 15:28:13;;;;;;;;;;;;;;;10.11;71.77;97578.75;4823837;29;19927;-66
2022/12/29 15:30:49;;;;;;;;;;;;;;;10.11;71.87;97578.75;4840099;29;19921;-65
2022/12/29 15:33:18;;;;;;;;;;;;;;;10.11;71.96;97581.38;4824505;29;20366;-65
2022/12/29 15:35:43;;;;;;;;;;;;;;;10.11;72.01;97575.31;4822388;29;20432;-65
2022/12/29 15:38:13;;;;;;;;;;;;;;;10.08;72.60;97576.41;4823857;29;19964;-65
2022/12/29 15:40:38;;;;;;;;;;;;;;;10.07;72.14;97577.34;4822281;29;20329;-66
2022/12/29 15:43:21;;;;;;;;;;;;;;;10.11;72.59;97565.66;4839817;29;19963;-67
2022/12/29 15:45:46;;;;;;;;;;;;;;;10.08;72.74;97568.53;4832541;29;19921;-66
2022/12/29 15:48:19;;;;;;;;;;;;;;;9.98;72.92;97572.81;4824818;29;20400;-66
2022/12/29 15:50:45;;;;;;;;;;;;;;;9.98;72.83;97583.28;4834952;29;20565;-66
2022/12/29 15:53:11;;;;;;;;;;;;;;;9.98;72.59;97588.53;4823487;29;19924;-66
2022/12/29 15:55:36;;;;;;;;;;;;;;;9.94;73.09;97579.22;4803624;29;19954;-68
2022/12/29 15:58:03;;;;;;;;;;;;;;;9.87;74.17;97584.09;4823770;29;20019;-65
2022/12/29 16:00:32;;;;;;;;;;;;;;;9.85;74.03;97583.38;4822719;29;20007;-67
2022/12/29 16:02:58;;;;;;;;;;;;;;;9.85;73.89;97587.78;4834831;29;20019;-66
2022/12/29 16:05:24;;;;;;;;;;;;;;;9.85;73.71;97582.56;4823562;29;19924;-65
2022/12/29 16:07:53;;;;;;;;;;;;;;;9.86;73.94;97564.09;4824661;29;19973;-66
2022/12/29 16:10:30;;;;;;;;;;;;;;;9.86;73.57;97579.81;4824418;29;19921;-66
2022/12/29 16:12:55;;;;;;;;;;;;;;;9.83;73.64;97589.69;4834954;29;19926;-65
2022/12/29 16:15:21;;;;;;;;;;;;;;;9.84;73.86;97592.19;4823416;29;19942;-65
2022/12/29 16:17:47;;;;;;;;;;;;;;;9.84;74.24;97584.34;4838844;29;19921;-65
2022/12/29 16:20:22;;;;;;;;;;;;;;;9.82;73.78;97599.31;4824089;29;19924;-65
2022/12/29 16:22:48;;;;;;;;;;;;;;;9.83;73.82;97600.16;4822736;29;19924;-68
2022/12/29 16:25:13;;;;;;;;;;;;;;;9.85;74.10;97611.38;4816540;29;19920;-65
2022/12/29 16:27:39;;;;;;;;;;;;;;;9.84;74.03;97607.06;4840604;29;20018;-65
2022/12/29 16:30:19;;;;;;;;;;;;;;;9.83;74.06;97610.63;4841113;29;20007;-66
2022/12/29 16:32:45;;;;;;;;;;;;;;;9.83;74.20;97613.25;4837374;29;20407;-65
2022/12/29 16:35:12;;;;;;;;;;;;;;;9.88;74.06;97611.13;4838872;29;19963;-65
2022/12/29 16:37:37;;;;;;;;;;;;;;;9.86;74.51;97620.88;4824194;29;19917;-66
2022/12/29 16:40:19;;;;;;;;;;;;;;;9.87;74.36;97617.31;4840029;29;20126;-67
2022/12/29 16:42:48;;;;;;;;;;;;;;;9.83;74.73;97611.47;4839774;29;19960;-65
2022/12/29 16:45:16;;;;;;;;;;;;;;;9.81;74.83;97602.06;4837021;29;20387;-65
2022/12/29 16:47:41;;;;;;;;;;;;;;;9.80;74.81;97613.47;4839331;29;19952;-67
2022/12/29 16:50:10;;;;;;;;;;;;;;;9.81;74.76;97620.41;4840219;29;20056;-65
2022/12/29 16:52:36;;;;;;;;;;;;;;;9.80;74.80;97611.69;4842502;29;20315;-65
2022/12/29 16:55:01;;;;;;;;;;;;;;;9.80;74.62;97609.06;4840018;29;20381;-65
2022/12/29 16:57:30;;;;;;;;;;;;;;;9.72;75.00;97604.41;4826763;29;19927;-65
2022/12/29 16:59:56;;;;;;;;;;;;;;;9.74;74.85;97607.75;4825866;29;19920;-65
2022/12/29 17:02:22;;;;;;;;;;;;;;;9.74;74.82;97614.78;4826658;29;19916;-65
2022/12/29 17:04:49;;;;;;;;;;;;;;;9.73;74.84;97621.78;4824080;29;20148;-65
2022/12/29 17:07:18;;;;;;;;;;;;;;;9.74;75.04;97618.25;4825905;29;19921;-67
2022/12/29 17:09:43;;;;;;;;;;;;;;;9.74;75.19;97620.84;4843452;29;20369;-65
2022/12/29 17:12:08;;;;;;;;;;;;;;;9.75;75.14;97635.63;4842955;29;19921;-65
2022/12/29 17:14:34;;;;;;;;;;;;;;;9.78;75.14;97628.50;4826092;29;19973;-66
2022/12/29 17:17:02;;;;;;;;;;;;;;;9.75;75.65;97646.09;4839868;29;19970;-68
2022/12/29 17:19:31;;;;;;;;;;;;;;;9.75;75.85;97645.25;4826188;29;20385;-66
2022/12/29 17:21:56;;;;;;;;;;;;;;;9.77;76.97;97669.53;4808115;29;19928;-65
2022/12/29 17:24:21;;;;;;;;;;;;;;;9.75;78.66;97698.47;4825301;29;19917;-63
2022/12/29 17:26:51;;;;;;;;;;;;;;;9.70;80.85;97700.59;4816504;29;20385;-64
2022/12/29 17:29:21;;;;;;;;;;;;;;;9.63;81.92;97698.50;4826253;29;20393;-65
2022/12/29 17:31:46;;;;;;;;;;;;;;;9.55;83.37;97693.84;4826012;29;19968;-64
2022/12/29 17:34:12;;;;;;;;;;;;;;;9.46;83.91;97697.13;4826391;29;19917;-65
2022/12/29 17:36:37;;;;;;;;;;;;;;;9.35;84.89;97710.16;4824094;29;19921;-66
2022/12/29 17:39:02;;;;;;;;;;;;;;;9.33;85.45;97706.81;4825213;29;20369;-64
2022/12/29 17:41:27;;;;;;;;;;;;;;;9.31;86.25;97704.28;4823859;29;20469;-64
2022/12/29 17:43:53;;;;;;;;;;;;;;;9.29;86.38;97711.44;4824684;29;20377;-64
2022/12/29 17:46:18;;;;;;;;;;;;;;;9.20;86.87;97697.22;4842915;29;20441;-64
2022/12/29 17:48:43;;;;;;;;;;;;;;;9.19;87.49;97694.72;4835000;29;20385;-64
2022/12/29 17:51:08;;;;;;;;;;;;;;;9.12;88.29;97689.09;4842392;29;20571;-64
2022/12/29 17:53:33;;;;;;;;;;;;;;;9.14;88.43;97687.16;4824085;29;20414;-64
2022/12/29 17:55:59;;;;;;;;;;;;;;;9.09;88.71;97684.06;4842835;29;20396;-65
2022/12/29 17:58:24;;;;;;;;;;;;;;;9.08;89.34;97684.97;4840356;29;19927;-65
2022/12/29 18:00:51;;;;;;;;;;;;;;;9.06;89.57;97684.28;4833603;29;19921;-66
2022/12/29 18:03:26;;;;;;;;;;;;;;;9.04;90.17;97680.91;4841944;29;19917;-63
2022/12/29 18:05:51;;;;;;;;;;;;;;;9.05;90.41;97687.84;4824573;29;19916;-63
2022/12/29 18:08:17;;;;;;;;;;;;;;;9.03;89.86;97684.50;4841490;29;19985;-63
2022/12/29 18:10:42;;;;;;;;;;;;;;;9.00;89.69;97689.94;4838170;29;19921;-63
2022/12/29 18:13:08;;;;;;;;;;;;;;;8.97;89.37;97692.75;4825463;29;19931;-68
2022/12/29 18:15:34;;;;;;;;;;;;;;;8.94;88.75;97690.34;4825382;29;19917;-66
2022/12/29 18:17:59;;;;;;;;;;;;;;;8.89;89.16;97698.53;4826009;29;19924;-66
2022/12/29 18:20:25;;;;;;;;;;;;;;;8.82;88.98;97702.53;4822569;29;20445;-67
2022/12/29 18:22:50;;;;;;;;;;;;;;;8.78;89.27;97696.66;4824480;29;20456;-66
2022/12/29 18:25:27;;;;;;;;;;;;;;;8.76;89.47;97703.78;4842041;29;19924;-66
2022/12/29 18:27:52;;;;;;;;;;;;;;;8.73;89.70;97705.75;4810509;29;19973;-67
2022/12/29 18:30:17;;;;;;;;;;;;;;;8.71;89.74;97699.81;4840833;29;20551;-68
2022/12/29 18:32:42;;;;;;;;;;;;;;;8.68;89.91;97716.53;4841059;29;20067;-65
2022/12/29 18:35:31;;;;;;;;;;;;;;;8.63;90.23;97718.63;4851354;29;19999;-65
2022/12/29 18:37:56;;;;;;;;;;;;;;;10.89;89.06;97708.28;4821663;29;19935;-66
2022/12/29 18:40:21;;;;;;;;;;;;;;;10.32;82.94;97711.78;4835625;29;19920;-66
2022/12/29 18:42:46;;;;;;;;;;;;;;;9.94;83.69;97707.59;4824642;29;19916;-66
2022/12/29 18:45:18;;;;;;;;;;;;;;;9.68;84.49;97718.19;4840944;29;19965;-65
2022/12/29 18:47:44;;;;;;;;;;;;;;;9.49;85.36;97717.84;4825302;29;19920;-65
2022/12/29 18:50:09;;;;;;;;;;;;;;;9.32;86.04;97715.59;4835479;29;19945;-65
2022/12/29 18:52:34;;;;;;;;;;;;;;;9.19;86.80;97716.47;4840746;29;19925;-64
2022/12/29 18:54:59;;;;;;;;;;;;;;;9.07;87.50;97706.88;4841168;29;19916;-64
2022/12/29 18:57:27;;;;;;;;;;;;;;;9.01;88.21;97709.91;4841273;29;19917;-65
2022/12/29 18:59:52;;;;;;;;;;;;;;;8.92;88.44;97714.00;4817187;29;19928;-66
2022/12/29 19:02:17;;;;;;;;;;;;;;;8.83;88.61;97711.19;4835411;29;19928;-65
2022/12/29 19:04:43;;;;;;;;;;;;;;;8.75;88.63;97707.34;4839806;29;19924;-66
2022/12/29 19:07:08;;;;;;;;;;;;;;;8.72;89.16;97712.78;4840583;29;20385;-65
2022/12/29 19:09:33;;;;;;;;;;;;;;;8.69;89.44;97718.22;4838028;29;19920;-66
2022/12/29 19:11:58;;;;;;;;;;;;;;;8.65;89.33;97710.69;4838392;29;19949;-65
2022/12/29 19:14:23;;;;;;;;;;;;;;;8.64;89.85;97715.09;4823500;29;19924;-66
2022/12/29 19:16:49;;;;;;;;;;;;;;;8.62;89.76;97716.97;4841573;29;19973;-66
2022/12/29 19:19:14;;;;;;;;;;;;;;;8.62;90.26;97724.81;4831016;29;19924;-65
2022/12/29 19:21:39;;;;;;;;;;;;;;;8.59;90.02;97727.63;4821388;29;20013;-66
2022/12/29 19:24:05;;;;;;;;;;;;;;;8.56;89.73;97727.81;4838507;29;20392;-66
2022/12/29 19:26:31;;;;;;;;;;;;;;;8.55;90.34;97723.56;4830779;29;20393;-66
2022/12/29 19:28:56;;;;;;;;;;;;;;;8.53;90.18;97723.66;4824484;29;19920;-66
2022/12/29 19:31:21;;;;;;;;;;;;;;;8.51;90.59;97727.31;4829454;29;19970;-66
2022/12/29 19:33:46;;;;;;;;;;;;;;;8.52;91.20;97726.38;4833471;29;19972;-66
2022/12/29 19:36:16;;;;;;;;;;;;;;;8.51;90.76;97724.69;4840079;29;20402;-66
2022/12/29 19:38:42;;;;;;;;;;;;;;;8.51;90.94;97729.94;4841113;29;19916;-66
2022/12/29 19:41:07;;;;;;;;;;;;;;;8.50;90.81;97723.88;4823137;29;19986;-65
2022/12/29 19:43:32;;;;;;;;;;;;;;;10.52;95.67;97728.63;4835652;29;19920;-63
2022/12/29 19:45:57;;;;;;;;;;;;;;;11.32;80.36;97718.03;4841265;29;19923;-65
2022/12/29 19:48:22;;;;;;;;;;;;;;;10.80;78.84;97722.09;4837974;29;20027;-64
2022/12/29 19:50:48;;;;;;;;;;;;;;;10.36;79.87;97719.31;4839315;29;20007;-64
2022/12/29 19:53:13;;;;;;;;;;;;;;;10.04;81.36;97726.09;4840752;29;20015;-64
2022/12/29 19:55:44;;;;;;;;;;;;;;;9.77;82.73;97723.69;4840025;29;19925;-64
2022/12/29 19:58:10;;;;;;;;;;;;;;;9.53;83.45;97727.13;4838673;29;19927;-64
2022/12/29 20:00:38;;;;;;;;;;;;;;;9.34;84.31;97729.41;4821835;29;19921;-68
2022/12/29 20:03:03;;;;;;;;;;;;;;;9.24;84.81;97735.28;4832856;29;20032;-67
2022/12/29 20:05:28;;;;;;;;;;;;;;;9.10;85.00;97724.97;4840442;29;20027;-67
2022/12/29 20:07:53;;;;;;;;;;;;;;;8.99;85.38;97732.75;4819789;29;20039;-66
2022/12/29 20:10:18;;;;;;;;;;;;;;;8.94;85.37;97726.97;4822147;29;20011;-67
2022/12/29 20:12:44;;;;;;;;;;;;;;;8.85;85.82;97722.41;4840960;29;20028;-67
2022/12/29 20:15:09;;;;;;;;;;;;;;;8.76;85.95;97723.84;4824895;29;19991;-67
2022/12/29 20:17:35;;;;;;;;;;;;;;;8.71;86.44;97725.97;4823395;29;19959;-67
2022/12/29 20:20:00;;;;;;;;;;;;;;;8.67;86.40;97730.56;4831005;29;19963;-66
2022/12/29 20:22:25;;;;;;;;;;;;;;;8.61;86.98;97730.16;4827308;29;19996;-67
2022/12/29 20:24:50;;;;;;;;;;;;;;;8.57;86.67;97732.13;4840886;29;19939;-66
2022/12/29 20:27:15;;;;;;;;;;;;;;;8.54;86.74;97734.97;4829710;29;19921;-67
2022/12/29 20:29:42;;;;;;;;;;;;;;;8.52;87.11;97724.59;4838980;29;19928;-66
2022/12/29 20:32:07;;;;;;;;;;;;;;;8.49;87.44;97719.56;4827048;29;19924;-66
2022/12/29 20:34:32;;;;;;;;;;;;;;;8.48;87.63;97724.91;4843334;29;19977;-66
2022/12/29 20:36:57;;;;;;;;;;;;;;;8.49;87.86;97721.34;4844763;29;19916;-67
2022/12/29 20:39:22;;;;;;;;;;;;;;;8.44;87.94;97723.44;4840598;29;19924;-67
2022/12/29 20:41:48;;;;;;;;;;;;;;;8.39;88.18;97720.28;4835548;29;19925;-67
2022/12/29 20:44:14;;;;;;;;;;;;;;;8.41;88.49;97718.41;4843720;29;19923;-66
2022/12/29 20:46:39;;;;;;;;;;;;;;;8.28;89.27;97720.97;4844069;29;19920;-67
2022/12/29 20:49:04;;;;;;;;;;;;;;;8.27;89.25;97711.47;4824968;29;20019;-67
2022/12/29 20:51:29;;;;;;;;;;;;;;;8.26;89.44;97715.03;4838680;29;19976;-66
2022/12/29 20:53:55;;;;;;;;;;;;;;;8.23;89.78;97718.69;4842877;29;19933;-67
2022/12/29 20:56:20;;;;;;;;;;;;;;;8.24;90.48;97709.91;4827766;29;19965;-67
2022/12/29 20:58:46;;;;;;;;;;;;;;;8.23;90.30;97710.84;4843619;29;19920;-67
2022/12/29 21:01:12;;;;;;;;;;;;;;;8.23;90.72;97721.31;4826709;29;20008;-67
2022/12/29 21:03:37;;;;;;;;;;;;;;;8.17;90.09;97731.31;4819533;29;20412;-67
2022/12/29 21:06:02;;;;;;;;;;;;;;;8.17;91.01;97731.31;4843829;29;19939;-66
2022/12/29 21:08:29;;;;;;;;;;;;;;;8.16;90.53;97727.88;4844126;29;19921;-67
2022/12/29 21:10:54;;;;;;;;;;;;;;;8.17;90.82;97737.38;4827528;29;19920;-67
2022/12/29 21:13:19;;;;;;;;;;;;;;;8.18;90.19;97735.59;4839053;29;19977;-68
2022/12/29 21:15:44;;;;;;;;;;;;;;;8.18;90.19;97732.97;4827346;29;19956;-67
2022/12/29 21:18:10;;;;;;;;;;;;;;;8.16;91.04;97730.50;4827898;29;19987;-66
2022/12/29 21:20:35;;;;;;;;;;;;;;;8.14;90.39;97741.97;4842572;29;19952;-67
2022/12/29 21:23:00;;;;;;;;;;;;;;;8.11;91.13;97745.63;4842385;29;19961;-66
2022/12/29 21:25:26;;;;;;;;;;;;;;;8.09;91.23;97744.91;4825483;29;19982;-66
2022/12/29 21:27:51;;;;;;;;;;;;;;;8.04;91.32;97746.94;4830780;29;19920;-67
2022/12/29 21:30:17;;;;;;;;;;;;;;;8.02;91.00;97746.25;4832210;29;19917;-67
2022/12/29 21:32:42;;;;;;;;;;;;;;;8.03;91.77;97747.91;4843420;29;19932;-67
2022/12/29 21:35:07;;;;;;;;;;;;;;;8.03;91.42;97755.72;4841534;29;19986;-67
2022/12/29 21:37:33;;;;;;;;;;;;;;;8.06;90.48;97766.00;4840601;29;19920;-67
2022/12/29 21:39:58;;;;;;;;;;;;;;;8.03;90.89;97771.41;4824416;29;20050;-66
2022/12/29 21:42:23;;;;;;;;;;;;;;;8.03;91.10;97771.41;4841116;29;19924;-66
2022/12/29 21:50:16;;;;;;;;;;;;;;;8.00;91.48;97761.16;4834659;29;20015;-69
2022/12/29 21:52:41;;;;;;;;;;;;;;;7.97;91.53;97770.03;4843042;29;20937;-67
2022/12/29 21:55:07;;;;;;;;;;;;;;;7.96;91.59;97770.13;4841539;29;19999;-66
